Terre Haute International Hulman Field Terre Haute US
ICAO: KHUF
IATA: HUF
Category: Medium
Scheduled Services: No

Elevation: 589 ft
TransAlt. 18000 ft.

Airport Communications:
APP/DEP:119.8
ASOS:127.5
ATIS:127.5
GND:121.6
RACER OPS:143.55
RDO:122.2
TWR:118.3
UNICOM:122.95

KHUF Zoom In..

Runways:

(A) RW 05 length 9020 ft width 150 ft
ILS 109.70 / hdg 49

(B) RW 14 length 7200 ft width 150 ft
---- / hdg 137

(C) RW 18 length 4000 ft width 150 ft
---- / hdg 182

(D) RW 23 length 9020 ft width 150 ft
---- / hdg 229

(E) RW 32 length 7200 ft width 150 ft
---- / hdg 317

(F) RW 36 length 4000 ft width 150 ft
---- / hdg 2

Location; KHUF
Day. 29 / Time. 21.53 Zulu
* Altimeter: 29.97
* Temperature: 26° c. 78.8°f.
* Wind from: 290° Speed 09 kn.
Dewpoint: 09° c.
Visibility: 10 Statute Miles.
Clouds: Clear (automated report).

KHUF 292153Z 29009KT 10SM CLR 26/09 A2997 RMK AO2 SLP146 T02610094


Wind From 290°
Speed 09 kn.

 
 
jpsmedia worldairports.se 2020   terms of use